Terminal Aerodrome Forecast
Issued by NWS

Home | Current Version | Previous Version | Graphics & Text | Print | Product List | Glossary On
Versions: 1 2 3 4 5 6 7 8 9 10 11 12 13 14 15 16 17 18 19
000
FTUS43 KGRB 140435 AAA
TAFRHI
TAF AMD
KRHI 140435Z 1405/1424 02005KT P6SM -SHSN SCT018 BKN035
      TEMPO 1405/1409 3SM -SHSN OVC018
     FM140900 30003KT P6SM -SHSN BKN016
     FM141300 26004KT P6SM BKN014
     FM141800 27005KT P6SM BKN009
     FM141900 28004KT P6SM BKN014=

USA.gov is the U.S. government's official web portal to all federal, state and local government web resources and services.